Time;durP1;ratioP1;P1;durP2;ratioP2;P2;SDS_P1;SDS_P2;PMS_P1;PMS_P2;Temp;Humidity;BMP_temperature;BMP_pressure;BME280_temperature;BME280_humidity;BME280_pressure;Samples;Min_cycle;Max_cycle;Signal;HPM_P1;HPM_P2
2023/12/16 00:01:50;;;;;;;;;;;22.10;37.80;;;;;;5010124;28;20144;-59
2023/12/16 00:04:31;;;;;;;;;;;22.10;37.80;;;;;;5016611;28;19930;-64
2023/12/16 00:06:58;;;;;;;;;;;22.10;37.80;;;;;;5016215;28;20367;-59
2023/12/16 00:09:25;;;;;;;;;;;22.10;37.80;;;;;;5016422;28;19932;-63
2023/12/16 00:11:52;;;;;;;;;;;22.10;37.80;;;;;;5016806;28;19995;-64
2023/12/16 00:14:20;;;;;;;;;;;22.10;37.80;;;;;;5016600;28;20020;-58
2023/12/16 00:16:47;;;;;;;;;;;22.10;37.80;;;;;;5016869;28;19968;-59
2023/12/16 00:19:14;;;;;;;;;;;22.10;37.80;;;;;;5016722;28;19925;-58
2023/12/16 00:21:41;;;;;;;;;;;22.10;37.80;;;;;;5016406;28;19925;-57
2023/12/16 00:24:08;;;;;;;;;;;22.10;37.80;;;;;;5021676;28;19925;-57
2023/12/16 00:26:35;;;;;;;;;;;22.10;37.80;;;;;;5036651;28;20024;-57
2023/12/16 00:29:02;;;;;;;;;;;22.10;37.80;;;;;;5017972;28;19991;-57
2023/12/16 00:31:29;;;;;;;;;;;22.10;37.80;;;;;;5016256;28;19930;-57
2023/12/16 00:33:56;;;;;;;;;;;22.10;37.80;;;;;;5016160;28;20406;-58
2023/12/16 00:36:23;;;;;;;;;;;22.10;37.80;;;;;;5023831;28;20344;-58
2023/12/16 00:38:50;;;;;;;;;;;22.10;37.70;;;;;;5021114;28;19979;-57
2023/12/16 00:41:17;;;;;;;;;;;22.10;37.70;;;;;;4999227;28;19961;-57
2023/12/16 00:43:44;;;;;;;;;;;22.00;37.70;;;;;;5015958;28;19939;-58
2023/12/16 00:46:11;;;;;;;;;;;22.00;37.60;;;;;;4997444;28;19925;-58
2023/12/16 00:48:38;;;;;;;;;;;22.00;37.70;;;;;;5015984;28;19940;-58
2023/12/16 00:51:06;;;;;;;;;;;22.00;37.70;;;;;;5016051;28;20024;-57
2023/12/16 00:53:33;;;;;;;;;;;22.00;37.70;;;;;;5015854;28;20349;-57
2023/12/16 00:56:00;;;;;;;;;;;22.10;37.70;;;;;;5016218;28;20306;-57
2023/12/16 00:58:27;;;;;;;;;;;22.00;37.70;;;;;;5015817;28;19980;-57
2023/12/16 01:00:54;;;;;;;;;;;22.00;37.70;;;;;;5016094;28;20020;-57
2023/12/16 01:03:21;;;;;;;;;;;22.00;37.70;;;;;;4998357;28;20028;-57
2023/12/16 01:05:48;;;;;;;;;;;22.00;37.70;;;;;;5015566;28;19954;-57
2023/12/16 01:08:15;;;;;;;;;;;22.00;37.70;;;;;;5015512;28;19932;-57
2023/12/16 01:10:42;;;;;;;;;;;22.00;37.70;;;;;;5016103;28;20330;-57
2023/12/16 01:13:09;;;;;;;;;;;22.00;37.70;;;;;;5015622;28;19968;-58
2023/12/16 01:15:37;;;;;;;;;;;22.00;37.70;;;;;;5016007;28;20024;-57
2023/12/16 01:18:04;;;;;;;;;;;22.00;37.70;;;;;;5015074;28;19929;-57
2023/12/16 01:20:32;;;;;;;;;;;22.00;37.70;;;;;;5015519;28;19964;-57
2023/12/16 01:22:58;;;;;;;;;;;22.00;37.70;;;;;;5015341;28;19932;-58
2023/12/16 01:25:25;;;;;;;;;;;22.00;37.70;;;;;;5015501;28;19960;-59
2023/12/16 01:27:52;;;;;;;;;;;22.00;37.70;;;;;;5015340;28;19935;-58
2023/12/16 01:30:19;;;;;;;;;;;21.90;37.60;;;;;;5015696;28;19964;-57
2023/12/16 01:32:46;;;;;;;;;;;22.00;37.70;;;;;;5015226;28;19925;-57
2023/12/16 01:35:13;;;;;;;;;;;21.90;37.60;;;;;;5015677;28;19926;-57
2023/12/16 01:37:40;;;;;;;;;;;21.90;37.60;;;;;;5015285;28;19925;-56
2023/12/16 01:40:07;;;;;;;;;;;21.90;37.50;;;;;;5015563;28;19968;-58
2023/12/16 01:42:34;;;;;;;;;;;22.00;37.60;;;;;;5014940;28;19925;-58
2023/12/16 01:45:03;;;;;;;;;;;21.90;37.50;;;;;;5015455;28;20020;-58
2023/12/16 01:47:31;;;;;;;;;;;21.90;37.50;;;;;;5014929;28;20299;-58
2023/12/16 01:49:58;;;;;;;;;;;21.90;37.60;;;;;;5015348;28;19925;-58
2023/12/16 01:52:25;;;;;;;;;;;21.90;37.60;;;;;;5015244;28;19961;-59
2023/12/16 01:54:52;;;;;;;;;;;21.90;37.60;;;;;;5015013;28;19971;-58
2023/12/16 01:57:19;;;;;;;;;;;21.90;37.60;;;;;;5014753;28;19972;-57
2023/12/16 01:59:47;;;;;;;;;;;21.90;37.60;;;;;;5014864;28;19980;-58
2023/12/16 02:02:14;;;;;;;;;;;21.90;37.60;;;;;;5015162;28;19925;-57
2023/12/16 02:04:41;;;;;;;;;;;21.90;37.60;;;;;;5014870;28;20322;-57
2023/12/16 02:07:08;;;;;;;;;;;21.90;37.50;;;;;;5014653;28;19948;-58
2023/12/16 02:09:35;;;;;;;;;;;21.80;37.50;;;;;;5014669;28;20294;-58
2023/12/16 02:12:02;;;;;;;;;;;21.90;37.50;;;;;;5014550;28;19940;-58
2023/12/16 02:14:29;;;;;;;;;;;21.90;37.50;;;;;;5014882;28;19987;-59
2023/12/16 02:16:56;;;;;;;;;;;21.80;37.50;;;;;;5014703;28;19930;-58
2023/12/16 02:19:25;;;;;;;;;;;21.90;37.50;;;;;;5014394;28;19975;-56
2023/12/16 02:21:52;;;;;;;;;;;21.90;37.50;;;;;;5014403;28;20391;-58
2023/12/16 02:24:20;;;;;;;;;;;21.90;37.50;;;;;;5014165;28;20395;-57
2023/12/16 02:26:47;;;;;;;;;;;21.80;37.50;;;;;;5014330;28;19926;-58
2023/12/16 02:29:14;;;;;;;;;;;21.80;37.50;;;;;;5014687;28;19932;-56
2023/12/16 02:31:44;;;;;;;;;;;21.80;37.50;;;;;;5014173;28;19932;-57
2023/12/16 02:34:11;;;;;;;;;;;21.80;38.00;;;;;;5014192;28;20422;-57
2023/12/16 02:36:38;;;;;;;;;;;21.80;37.40;;;;;;5014333;28;19926;-57
2023/12/16 02:39:05;;;;;;;;;;;21.80;37.40;;;;;;5014320;28;20008;-58
2023/12/16 02:41:32;;;;;;;;;;;21.80;37.40;;;;;;5014185;28;19971;-57
2023/12/16 02:43:59;;;;;;;;;;;21.80;37.30;;;;;;5014130;28;20023;-57
2023/12/16 02:46:26;;;;;;;;;;;21.80;37.30;;;;;;5013882;28;19925;-57
2023/12/16 02:48:53;;;;;;;;;;;21.80;37.30;;;;;;5014119;28;20433;-57
2023/12/16 02:51:20;;;;;;;;;;;21.80;37.40;;;;;;5014193;28;19925;-57
2023/12/16 02:53:48;;;;;;;;;;;21.80;37.40;;;;;;5013778;28;20387;-55
2023/12/16 02:56:15;;;;;;;;;;;21.80;37.40;;;;;;5013950;28;19925;-57
2023/12/16 02:58:42;;;;;;;;;;;21.80;37.40;;;;;;5014386;28;20347;-57
2023/12/16 03:01:09;;;;;;;;;;;21.80;37.40;;;;;;5014060;28;20013;-57
2023/12/16 03:03:37;;;;;;;;;;;21.80;37.40;;;;;;5013974;28;20397;-56
2023/12/16 03:06:04;;;;;;;;;;;21.70;37.30;;;;;;5014321;28;19995;-58
2023/12/16 03:08:32;;;;;;;;;;;21.80;37.40;;;;;;5013302;28;19987;-58
2023/12/16 03:10:59;;;;;;;;;;;21.80;37.40;;;;;;5013800;28;20367;-58
2023/12/16 03:13:26;;;;;;;;;;;21.80;37.40;;;;;;5013444;28;20295;-58
2023/12/16 03:15:53;;;;;;;;;;;21.70;37.30;;;;;;5013870;28;20163;-57
2023/12/16 03:18:20;;;;;;;;;;;21.80;37.40;;;;;;5027351;28;19929;-57
2023/12/16 03:20:48;;;;;;;;;;;21.80;37.40;;;;;;5033392;28;19925;-56
2023/12/16 03:23:15;;;;;;;;;;;21.70;37.30;;;;;;5033113;28;19940;-57
2023/12/16 03:25:43;;;;;;;;;;;21.70;37.90;;;;;;5033562;28;19965;-58
2023/12/16 03:28:10;;;;;;;;;;;21.70;37.30;;;;;;5032984;28;20457;-56
2023/12/16 03:30:38;;;;;;;;;;;21.70;37.30;;;;;;5016006;28;19932;-57
2023/12/16 03:33:05;;;;;;;;;;;21.70;37.30;;;;;;5033399;28;19925;-56
2023/12/16 03:35:32;;;;;;;;;;;21.70;37.40;;;;;;5033099;28;20216;-56
2023/12/16 03:38:00;;;;;;;;;;;21.70;37.30;;;;;;5032891;28;19936;-57
2023/12/16 03:40:27;;;;;;;;;;;21.70;37.30;;;;;;5033242;28;19925;-56
2023/12/16 03:42:55;;;;;;;;;;;21.70;37.30;;;;;;5033152;28;19933;-56
2023/12/16 03:45:23;;;;;;;;;;;21.70;37.30;;;;;;5015727;28;19932;-57
2023/12/16 03:47:50;;;;;;;;;;;21.70;37.20;;;;;;5032928;28;20337;-56
2023/12/16 03:50:17;;;;;;;;;;;21.70;37.20;;;;;;5033348;28;19968;-56
2023/12/16 03:52:44;;;;;;;;;;;21.70;37.20;;;;;;5032875;28;19972;-58
2023/12/16 03:55:12;;;;;;;;;;;21.70;37.20;;;;;;5033115;28;20387;-55
2023/12/16 03:57:39;;;;;;;;;;;21.70;37.20;;;;;;5032823;28;20012;-56
2023/12/16 04:00:08;;;;;;;;;;;21.70;37.20;;;;;;5033319;28;19928;-54
2023/12/16 04:02:35;;;;;;;;;;;21.70;37.20;;;;;;5033005;28;19936;-57
2023/12/16 04:05:03;;;;;;;;;;;21.70;37.20;;;;;;5032880;28;19925;-57
2023/12/16 04:07:30;;;;;;;;;;;21.70;37.20;;;;;;5033236;28;19925;-56
2023/12/16 04:09:58;;;;;;;;;;;21.70;37.20;;;;;;5033135;28;19925;-57
2023/12/16 04:12:25;;;;;;;;;;;21.60;37.10;;;;;;5033029;28;19929;-57
2023/12/16 04:14:52;;;;;;;;;;;21.70;37.20;;;;;;5032794;28;19955;-57
2023/12/16 04:17:19;;;;;;;;;;;21.60;37.10;;;;;;5033198;28;20008;-54
2023/12/16 04:19:51;;;;;;;;;;;21.60;37.10;;;;;;5034160;28;19979;-56
2023/12/16 04:22:18;;;;;;;;;;;21.60;37.10;;;;;;5036407;28;19939;-54
2023/12/16 04:24:46;;;;;;;;;;;21.60;37.10;;;;;;5036467;28;19925;-56
2023/12/16 04:27:13;;;;;;;;;;;21.60;37.10;;;;;;5036637;28;19925;-56
2023/12/16 04:29:40;;;;;;;;;;;21.60;37.10;;;;;;5036658;28;19965;-57
2023/12/16 04:32:07;;;;;;;;;;;21.60;37.10;;;;;;5036740;28;19956;-57
2023/12/16 04:34:34;;;;;;;;;;;21.60;37.10;;;;;;5036129;28;19925;-56
2023/12/16 04:37:01;;;;;;;;;;;21.60;37.10;;;;;;5025252;28;19926;-57
2023/12/16 04:39:28;;;;;;;;;;;21.60;37.00;;;;;;5016813;28;19929;-56
2023/12/16 04:41:55;;;;;;;;;;;21.70;36.70;;;;;;5016399;28;19976;-57
2023/12/16 04:44:21;;;;;;;;;;;21.70;36.30;;;;;;5016355;28;20445;-57
2023/12/16 04:46:48;;;;;;;;;;;21.80;36.10;;;;;;5016235;28;19932;-57
2023/12/16 04:49:15;;;;;;;;;;;21.80;36.00;;;;;;5016420;28;19925;-58
2023/12/16 04:51:42;;;;;;;;;;;21.80;35.80;;;;;;5016221;28;19932;-58
2023/12/16 04:54:09;;;;;;;;;;;21.90;35.80;;;;;;4999164;28;20012;-57
2023/12/16 04:56:37;;;;;;;;;;;21.90;35.70;;;;;;5016096;28;19932;-56
2023/12/16 04:59:03;;;;;;;;;;;22.00;35.70;;;;;;5016075;28;19969;-57
2023/12/16 05:01:31;;;;;;;;;;;22.00;35.70;;;;;;5015998;28;19973;-57
2023/12/16 05:03:58;;;;;;;;;;;22.00;35.60;;;;;;5016199;28;19983;-57
2023/12/16 05:06:25;;;;;;;;;;;22.10;35.60;;;;;;5016242;28;19980;-56
2023/12/16 05:08:52;;;;;;;;;;;22.10;35.50;;;;;;5016097;28;20334;-57
2023/12/16 05:11:19;;;;;;;;;;;22.10;35.30;;;;;;5016358;28;19929;-57
2023/12/16 05:13:46;;;;;;;;;;;22.20;35.30;;;;;;5016012;28;19926;-57
2023/12/16 05:16:20;;;;;;;;;;;22.20;35.10;;;;;;5015881;28;19987;-56
2023/12/16 05:18:47;;;;;;;;;;;22.30;35.10;;;;;;5015944;28;19940;-57
2023/12/16 05:21:14;;;;;;;;;;;22.40;35.00;;;;;;5015834;28;20383;-55
2023/12/16 05:23:41;;;;;;;;;;;22.40;34.80;;;;;;5015518;28;19980;-57
2023/12/16 05:26:08;;;;;;;;;;;22.50;34.70;;;;;;5015918;28;19925;-56
2023/12/16 05:28:35;;;;;;;;;;;22.50;34.70;;;;;;5015797;28;19996;-58
2023/12/16 05:31:02;;;;;;;;;;;22.60;34.50;;;;;;5015219;28;20008;-58
2023/12/16 05:33:29;;;;;;;;;;;22.60;34.40;;;;;;5015419;28;20435;-57
2023/12/16 05:35:56;;;;;;;;;;;22.70;34.30;;;;;;5015373;28;19968;-56
2023/12/16 05:38:24;;;;;;;;;;;22.70;34.20;;;;;;5015177;28;20372;-56
2023/12/16 05:40:52;;;;;;;;;;;22.80;34.10;;;;;;5015429;28;19932;-56
2023/12/16 05:43:19;;;;;;;;;;;22.80;34.00;;;;;;5015556;28;19972;-57
2023/12/16 05:45:46;;;;;;;;;;;22.80;33.90;;;;;;5015167;28;19930;-57
2023/12/16 05:48:14;;;;;;;;;;;22.90;33.90;;;;;;4998194;28;19932;-57
2023/12/16 05:50:41;;;;;;;;;;;22.90;33.80;;;;;;5015043;28;20002;-56
2023/12/16 05:53:08;;;;;;;;;;;23.00;33.70;;;;;;5025481;28;19925;-57
2023/12/16 05:55:35;;;;;;;;;;;23.00;33.60;;;;;;5035273;28;20026;-56
2023/12/16 05:58:02;;;;;;;;;;;23.00;33.50;;;;;;5034644;28;19925;-56
2023/12/16 06:00:30;;;;;;;;;;;23.00;33.50;;;;;;5035025;28;20318;-56
2023/12/16 06:02:57;;;;;;;;;;;23.10;33.40;;;;;;5034419;28;19936;-56
2023/12/16 06:05:24;;;;;;;;;;;23.10;33.30;;;;;;5034980;28;19926;-56
2023/12/16 06:07:51;;;;;;;;;;;23.20;33.30;;;;;;5034724;28;19932;-57
2023/12/16 06:10:18;;;;;;;;;;;23.20;33.20;;;;;;5034500;28;19979;-56
2023/12/16 06:12:45;;;;;;;;;;;23.20;33.10;;;;;;5034656;28;20291;-56
2023/12/16 06:15:12;;;;;;;;;;;23.30;33.00;;;;;;5034449;28;20421;-57
2023/12/16 06:17:39;;;;;;;;;;;23.30;32.90;;;;;;5034396;28;19925;-57
2023/12/16 06:20:06;;;;;;;;;;;23.30;32.90;;;;;;5034755;28;19925;-57
2023/12/16 06:22:34;;;;;;;;;;;23.40;32.90;;;;;;5034039;28;20414;-57
2023/12/16 06:25:02;;;;;;;;;;;23.40;32.70;;;;;;5034414;28;19925;-57
2023/12/16 06:27:30;;;;;;;;;;;23.40;32.70;;;;;;5034015;28;19932;-57
2023/12/16 06:29:57;;;;;;;;;;;23.40;32.70;;;;;;5033621;28;20389;-57
2023/12/16 06:32:24;;;;;;;;;;;23.50;32.70;;;;;;5034356;28;19925;-57
2023/12/16 06:34:51;;;;;;;;;;;23.50;32.70;;;;;;5034314;28;20000;-57
2023/12/16 06:37:18;;;;;;;;;;;23.50;32.60;;;;;;5033769;28;19929;-56
2023/12/16 06:39:45;;;;;;;;;;;23.60;32.60;;;;;;5016661;28;19935;-57
2023/12/16 06:42:12;;;;;;;;;;;23.60;32.50;;;;;;5033895;28;19925;-58
2023/12/16 06:44:39;;;;;;;;;;;23.70;32.40;;;;;;5032877;28;19931;-55
2023/12/16 06:47:06;;;;;;;;;;;23.70;32.40;;;;;;5034061;28;19929;-57
2023/12/16 06:49:33;;;;;;;;;;;23.70;32.30;;;;;;5033704;28;20482;-57
2023/12/16 06:52:00;;;;;;;;;;;23.70;32.30;;;;;;5034009;28;19929;-56
2023/12/16 06:54:27;;;;;;;;;;;23.80;32.30;;;;;;5033618;28;19932;-56
2023/12/16 06:56:55;;;;;;;;;;;23.80;32.70;;;;;;5025099;28;20379;-58
2023/12/16 06:59:22;;;;;;;;;;;23.90;32.10;;;;;;5003688;28;19929;-59
2023/12/16 07:01:49;;;;;;;;;;;23.80;32.00;;;;;;5013992;28;20337;-57
2023/12/16 07:04:16;;;;;;;;;;;23.90;32.00;;;;;;5013898;28;19948;-59
2023/12/16 07:06:43;;;;;;;;;;;23.90;31.90;;;;;;4996210;28;19989;-56
2023/12/16 07:09:10;;;;;;;;;;;24.00;31.90;;;;;;5013858;28;19926;-56
2023/12/16 07:11:40;;;;;;;;;;;24.00;31.90;;;;;;5013516;28;19926;-57
2023/12/16 07:14:09;;;;;;;;;;;24.10;31.80;;;;;;5013449;28;19926;-57
2023/12/16 07:16:36;;;;;;;;;;;24.10;31.80;;;;;;5013916;28;20443;-55
2023/12/16 07:19:03;;;;;;;;;;;24.10;31.70;;;;;;5013338;28;19932;-56
2023/12/16 07:21:30;;;;;;;;;;;24.10;31.60;;;;;;5013538;28;20371;-57
2023/12/16 07:23:57;;;;;;;;;;;24.20;31.60;;;;;;4995947;28;19925;-58
2023/12/16 07:26:24;;;;;;;;;;;24.20;31.50;;;;;;5013575;28;19970;-55
2023/12/16 07:28:51;;;;;;;;;;;24.20;31.50;;;;;;5013766;28;19998;-55
2023/12/16 07:31:18;;;;;;;;;;;24.30;31.50;;;;;;5013286;28;19926;-56
2023/12/16 07:33:45;;;;;;;;;;;24.30;31.40;;;;;;5013188;28;19925;-55
2023/12/16 07:36:12;;;;;;;;;;;24.30;31.30;;;;;;5013730;28;19932;-56
2023/12/16 07:38:39;;;;;;;;;;;24.40;31.20;;;;;;5013582;28;19926;-57
2023/12/16 07:41:07;;;;;;;;;;;24.40;31.10;;;;;;5013632;28;20347;-56
2023/12/16 07:43:34;;;;;;;;;;;24.50;31.10;;;;;;5013213;28;19929;-56
2023/12/16 07:46:03;;;;;;;;;;;24.50;31.10;;;;;;5012809;28;20016;-56
2023/12/16 07:48:30;;;;;;;;;;;24.50;31.10;;;;;;5013224;28;19932;-56
2023/12/16 07:50:57;;;;;;;;;;;24.50;31.00;;;;;;5013182;28;19934;-55
2023/12/16 07:53:24;;;;;;;;;;;24.50;31.00;;;;;;5013223;28;20016;-56
2023/12/16 07:55:51;;;;;;;;;;;24.50;30.90;;;;;;5016217;28;20331;-57
2023/12/16 07:58:18;;;;;;;;;;;24.50;30.80;;;;;;5017447;28;19926;-56
2023/12/16 08:00:45;;;;;;;;;;;24.50;30.90;;;;;;5000039;28;19925;-56
2023/12/16 08:03:12;;;;;;;;;;;24.60;31.00;;;;;;5016865;28;20314;-56
2023/12/16 08:05:42;;;;;;;;;;;24.60;30.90;;;;;;5017560;28;20251;-56
2023/12/16 08:08:10;;;;;;;;;;;24.60;30.80;;;;;;5016909;28;19925;-58
2023/12/16 08:10:37;;;;;;;;;;;24.70;30.80;;;;;;5017068;28;19961;-57
2023/12/16 08:13:05;;;;;;;;;;;24.70;30.80;;;;;;5017032;28;20331;-57
2023/12/16 08:15:32;;;;;;;;;;;24.70;30.70;;;;;;5017173;28;20008;-57
2023/12/16 08:17:59;;;;;;;;;;;24.70;30.70;;;;;;5016710;28;20387;-57
2023/12/16 08:20:27;;;;;;;;;;;24.80;30.70;;;;;;5016850;28;19929;-59
2023/12/16 08:22:54;;;;;;;;;;;24.80;30.70;;;;;;5016850;28;20368;-57
2023/12/16 08:25:21;;;;;;;;;;;24.80;30.70;;;;;;5017007;28;20379;-56
2023/12/16 08:27:48;;;;;;;;;;;24.80;30.60;;;;;;5016774;28;19972;-57
2023/12/16 08:30:16;;;;;;;;;;;24.90;30.60;;;;;;4999287;28;19926;-57
2023/12/16 08:32:43;;;;;;;;;;;24.90;30.60;;;;;;5016390;28;19926;-57
2023/12/16 08:35:10;;;;;;;;;;;24.90;30.50;;;;;;5016902;28;20020;-57
2023/12/16 08:37:38;;;;;;;;;;;24.90;30.50;;;;;;5016489;28;20020;-57
2023/12/16 08:40:05;;;;;;;;;;;24.90;30.50;;;;;;5016879;28;20012;-57
2023/12/16 08:42:33;;;;;;;;;;;25.00;30.60;;;;;;5016311;28;19925;-57
2023/12/16 08:45:02;;;;;;;;;;;25.00;30.40;;;;;;5025393;28;20366;-57
2023/12/16 08:47:29;;;;;;;;;;;25.00;30.30;;;;;;5035957;28;20417;-57
2023/12/16 08:49:56;;;;;;;;;;;25.00;30.40;;;;;;5036079;28;20508;-57
2023/12/16 08:52:23;;;;;;;;;;;25.10;30.50;;;;;;5036227;28;20019;-57
2023/12/16 08:54:50;;;;;;;;;;;25.10;30.40;;;;;;5035980;28;19925;-57
2023/12/16 08:57:17;;;;;;;;;;;25.10;30.40;;;;;;5036126;28;19929;-57
2023/12/16 08:59:44;;;;;;;;;;;25.10;30.30;;;;;;5035738;28;20391;-57
2023/12/16 09:02:11;;;;;;;;;;;25.10;30.40;;;;;;5035731;28;19925;-57
2023/12/16 09:04:38;;;;;;;;;;;25.10;30.40;;;;;;5035813;28;19939;-57
2023/12/16 09:07:05;;;;;;;;;;;25.20;30.40;;;;;;5034730;28;19960;-57
2023/12/16 09:09:32;;;;;;;;;;;25.20;30.40;;;;;;5035450;28;20039;-58
2023/12/16 09:11:59;;;;;;;;;;;25.20;30.30;;;;;;5035700;28;19941;-57
2023/12/16 09:14:26;;;;;;;;;;;25.30;30.90;;;;;;5035662;28;20020;-57
2023/12/16 09:16:53;;;;;;;;;;;25.30;30.30;;;;;;5035484;28;19972;-57
2023/12/16 09:19:21;;;;;;;;;;;25.30;30.30;;;;;;5035626;28;20329;-57
2023/12/16 09:21:48;;;;;;;;;;;25.30;30.20;;;;;;5035260;28;19972;-57
2023/12/16 09:24:15;;;;;;;;;;;25.40;30.30;;;;;;5035058;28;19925;-57
2023/12/16 09:26:42;;;;;;;;;;;25.40;30.20;;;;;;5035372;28;19975;-58
2023/12/16 09:29:10;;;;;;;;;;;25.40;30.20;;;;;;5035555;28;20355;-57
2023/12/16 09:31:37;;;;;;;;;;;25.40;30.20;;;;;;5035432;28;20349;-57
2023/12/16 09:34:05;;;;;;;;;;;25.40;30.20;;;;;;5035080;28;19925;-57
2023/12/16 09:36:33;;;;;;;;;;;25.40;30.10;;;;;;5034607;28;19975;-57
2023/12/16 09:39:00;;;;;;;;;;;25.40;30.20;;;;;;5009496;28;19930;-57
2023/12/16 09:41:28;;;;;;;;;;;25.50;30.20;;;;;;5015358;28;20380;-57
2023/12/16 09:43:59;;;;;;;;;;;25.50;30.20;;;;;;5015391;28;19972;-57
2023/12/16 09:46:30;;;;;;;;;;;25.50;30.10;;;;;;5015504;28;20329;-56
2023/12/16 09:48:58;;;;;;;;;;;25.50;30.10;;;;;;5014971;28;20020;-58
2023/12/16 09:51:26;;;;;;;;;;;25.50;30.00;;;;;;5015249;28;20312;-57
2023/12/16 09:53:53;;;;;;;;;;;25.50;30.00;;;;;;5015115;28;19980;-57
2023/12/16 09:56:21;;;;;;;;;;;25.60;30.60;;;;;;5015015;28;19976;-57
2023/12/16 09:58:51;;;;;;;;;;;25.60;30.10;;;;;;5014961;28;19926;-58
2023/12/16 10:01:19;;;;;;;;;;;25.60;30.10;;;;;;5030506;28;19925;-57
2023/12/16 10:03:47;;;;;;;;;;;25.60;30.00;;;;;;5002900;28;19925;-56
2023/12/16 10:06:15;;;;;;;;;;;25.60;30.00;;;;;;5034994;28;19925;-58
2023/12/16 10:08:43;;;;;;;;;;;25.70;30.10;;;;;;5030901;28;19940;-57
2023/12/16 10:11:10;;;;;;;;;;;25.70;30.00;;;;;;4997657;28;19926;-57
2023/12/16 10:13:58;;;;;;;;;;;25.70;30.00;;;;;;4995154;28;19934;-57
2023/12/16 10:16:26;;;;;;;;;;;25.70;30.00;;;;;;5005536;28;19925;-57
2023/12/16 10:18:54;;;;;;;;;;;25.70;30.00;;;;;;5034082;28;19925;-58
2023/12/16 10:21:24;;;;;;;;;;;25.70;30.00;;;;;;5034389;28;20389;-57
2023/12/16 10:23:52;;;;;;;;;;;25.80;30.00;;;;;;5033811;28;19925;-56
2023/12/16 10:26:19;;;;;;;;;;;25.80;30.00;;;;;;5034423;28;19952;-57
2023/12/16 10:28:47;;;;;;;;;;;25.80;30.00;;;;;;5034478;28;19979;-57
2023/12/16 10:31:15;;;;;;;;;;;25.90;30.60;;;;;;5034414;28;20028;-57
2023/12/16 10:33:42;;;;;;;;;;;25.90;30.00;;;;;;5033663;28;19925;-57
2023/12/16 10:36:09;;;;;;;;;;;25.90;30.00;;;;;;5034148;28;19932;-57
2023/12/16 10:38:36;;;;;;;;;;;25.90;30.00;;;;;;5033988;28;19929;-57
2023/12/16 10:41:04;;;;;;;;;;;26.00;30.00;;;;;;5034270;28;19932;-57
2023/12/16 10:43:31;;;;;;;;;;;26.00;30.00;;;;;;5033988;28;19925;-56
2023/12/16 10:46:04;;;;;;;;;;;26.00;30.00;;;;;;5034037;28;19933;-57
2023/12/16 10:48:35;;;;;;;;;;;26.00;30.00;;;;;;5033618;28;19971;-57
2023/12/16 10:51:03;;;;;;;;;;;26.10;30.00;;;;;;5033840;28;19925;-57
2023/12/16 10:53:36;;;;;;;;;;;26.10;30.00;;;;;;5033684;28;20430;-57
2023/12/16 10:56:07;;;;;;;;;;;26.10;30.00;;;;;;5034027;28;19933;-57
2023/12/16 10:58:38;;;;;;;;;;;26.10;30.00;;;;;;5033572;28;19925;-57
2023/12/16 11:01:12;;;;;;;;;;;26.10;30.00;;;;;;5033628;28;20386;-57
2023/12/16 11:03:42;;;;;;;;;;;26.10;30.00;;;;;;5033343;28;19929;-57
2023/12/16 11:06:15;;;;;;;;;;;26.10;30.00;;;;;;5005760;28;20020;-57
2023/12/16 11:08:42;;;;;;;;;;;26.20;30.00;;;;;;5011581;28;19972;-57
2023/12/16 11:11:09;;;;;;;;;;;26.20;30.00;;;;;;5013820;28;19937;-58
2023/12/16 11:13:36;;;;;;;;;;;26.20;30.00;;;;;;5013691;28;19925;-57
2023/12/16 11:16:13;;;;;;;;;;;26.20;30.00;;;;;;5013794;28;19948;-57
2023/12/16 11:18:42;;;;;;;;;;;26.20;30.00;;;;;;5013513;28;20012;-57
2023/12/16 11:21:13;;;;;;;;;;;26.20;30.00;;;;;;4996305;28;19935;-57
2023/12/16 11:23:44;;;;;;;;;;;26.30;30.00;;;;;;5013434;28;20008;-57
2023/12/16 11:26:12;;;;;;;;;;;26.30;29.90;;;;;;5013598;28;20015;-57
2023/12/16 11:28:41;;;;;;;;;;;26.30;29.90;;;;;;5013025;28;20199;-57
2023/12/16 11:31:10;;;;;;;;;;;26.40;30.00;;;;;;4995988;28;19925;-57
2023/12/16 11:33:44;;;;;;;;;;;26.40;30.00;;;;;;5013405;28;20295;-57
2023/12/16 11:36:12;;;;;;;;;;;26.40;30.00;;;;;;5013521;28;19925;-57
2023/12/16 11:38:47;;;;;;;;;;;26.50;30.00;;;;;;5013269;28;20387;-57
2023/12/16 11:41:34;;;;;;;;;;;26.50;29.80;;;;;;5013406;28;19925;-58
2023/12/16 11:44:01;;;;;;;;;;;26.60;29.80;;;;;;4996202;28;20036;-57
2023/12/16 11:46:32;;;;;;;;;;;26.60;29.80;;;;;;5013623;28;19972;-57
2023/12/16 11:49:02;;;;;;;;;;;26.60;29.70;;;;;;5013579;28;19988;-57
2023/12/16 11:51:29;;;;;;;;;;;26.70;29.70;;;;;;5013360;28;19987;-57
2023/12/16 11:53:57;;;;;;;;;;;26.70;29.70;;;;;;4995691;28;20299;-57
2023/12/16 11:56:25;;;;;;;;;;;26.80;29.70;;;;;;5013723;28;19930;-57
2023/12/16 11:58:57;;;;;;;;;;;26.70;29.60;;;;;;5013063;28;20394;-57
2023/12/16 12:01:25;;;;;;;;;;;26.80;29.60;;;;;;5013199;28;19931;-57
2023/12/16 12:03:53;;;;;;;;;;;26.80;29.60;;;;;;5013059;28;20397;-57
2023/12/16 12:06:20;;;;;;;;;;;26.80;29.60;;;;;;5013578;28;19925;-57
2023/12/16 12:08:47;;;;;;;;;;;26.80;29.60;;;;;;5013429;28;19948;-57
2023/12/16 12:11:16;;;;;;;;;;;26.80;29.60;;;;;;5013526;28;20379;-57
2023/12/16 12:13:52;;;;;;;;;;;26.80;29.60;;;;;;5013263;28;20025;-57
2023/12/16 12:16:21;;;;;;;;;;;26.70;29.60;;;;;;5013289;28;19929;-57
2023/12/16 12:18:48;;;;;;;;;;;26.70;29.60;;;;;;5013272;28;20035;-57
2023/12/16 12:21:16;;;;;;;;;;;26.60;29.60;;;;;;5013055;28;19929;-57
2023/12/16 12:23:43;;;;;;;;;;;26.60;29.60;;;;;;5013007;28;19925;-58
2023/12/16 12:26:10;;;;;;;;;;;26.60;29.70;;;;;;5013522;28;19926;-58
2023/12/16 12:28:38;;;;;;;;;;;26.60;29.70;;;;;;5013232;28;20322;-59
2023/12/16 12:31:06;;;;;;;;;;;26.60;29.70;;;;;;5013507;28;19968;-57
2023/12/16 12:33:34;;;;;;;;;;;26.50;29.70;;;;;;5012933;28;19980;-57
2023/12/16 12:36:01;;;;;;;;;;;26.50;29.70;;;;;;5012962;28;19930;-56
2023/12/16 12:38:29;;;;;;;;;;;26.50;29.70;;;;;;5012968;28;19932;-57
2023/12/16 12:40:57;;;;;;;;;;;26.50;29.80;;;;;;5013123;28;20354;-57
2023/12/16 12:43:28;;;;;;;;;;;26.40;29.80;;;;;;5016662;28;20295;-57
2023/12/16 12:46:06;;;;;;;;;;;26.40;29.80;;;;;;5016749;28;20287;-57
2023/12/16 12:48:33;;;;;;;;;;;26.40;29.90;;;;;;5016427;28;19929;-57
2023/12/16 12:51:03;;;;;;;;;;;26.30;29.90;;;;;;5015999;28;20346;-57
2023/12/16 12:53:31;;;;;;;;;;;26.30;29.90;;;;;;5014159;28;19936;-57
2023/12/16 12:55:58;;;;;;;;;;;26.40;30.00;;;;;;5002269;28;19926;-58
2023/12/16 12:58:25;;;;;;;;;;;26.30;29.90;;;;;;4996407;28;19926;-58
2023/12/16 13:00:57;;;;;;;;;;;26.30;29.90;;;;;;4996687;28;19965;-59
2023/12/16 13:03:26;;;;;;;;;;;26.30;29.90;;;;;;4996344;28;19964;-58
2023/12/16 13:05:53;;;;;;;;;;;26.30;29.90;;;;;;4996652;28;19926;-59
2023/12/16 13:08:23;;;;;;;;;;;26.30;29.90;;;;;;4996715;28;19932;-58
2023/12/16 13:10:51;;;;;;;;;;;26.30;29.90;;;;;;4996246;28;19988;-59
2023/12/16 13:13:19;;;;;;;;;;;26.20;29.90;;;;;;4996456;28;20406;-59
2023/12/16 13:15:47;;;;;;;;;;;26.30;29.90;;;;;;4996597;28;20074;-59
2023/12/16 13:18:22;;;;;;;;;;;26.20;29.90;;;;;;4996214;28;20412;-59
2023/12/16 13:20:50;;;;;;;;;;;26.20;29.90;;;;;;4996459;28;19929;-59
2023/12/16 13:23:17;;;;;;;;;;;26.20;29.90;;;;;;4996119;28;19926;-59
2023/12/16 13:25:44;;;;;;;;;;;26.20;29.90;;;;;;4995888;28;20393;-59
2023/12/16 13:28:11;;;;;;;;;;;26.20;29.90;;;;;;4978932;28;20033;-59
2023/12/16 13:30:40;;;;;;;;;;;26.20;29.90;;;;;;4996287;28;19930;-58
2023/12/16 13:33:08;;;;;;;;;;;26.20;29.90;;;;;;4996263;28;20297;-58
2023/12/16 13:35:35;;;;;;;;;;;26.20;29.90;;;;;;4979096;28;19969;-58
2023/12/16 13:38:02;;;;;;;;;;;26.20;29.90;;;;;;4995711;28;19930;-58
2023/12/16 13:40:29;;;;;;;;;;;26.20;29.90;;;;;;4995958;28;20271;-59
2023/12/16 13:42:56;;;;;;;;;;;26.20;29.90;;;;;;4995713;28;19930;-58
2023/12/16 13:45:23;;;;;;;;;;;26.20;29.90;;;;;;4996156;28;19930;-58
2023/12/16 13:47:50;;;;;;;;;;;26.20;29.90;;;;;;4995367;28;19984;-58
2023/12/16 13:50:18;;;;;;;;;;;26.10;29.80;;;;;;4996146;28;19926;-58
2023/12/16 13:52:47;;;;;;;;;;;26.10;29.80;;;;;;4978219;28;19969;-58
2023/12/16 13:55:16;;;;;;;;;;;26.10;29.80;;;;;;4978862;28;19925;-58
2023/12/16 13:57:43;;;;;;;;;;;26.10;29.90;;;;;;4995736;28;20434;-59
2023/12/16 14:00:11;;;;;;;;;;;26.10;29.90;;;;;;4995957;28;19930;-58
2023/12/16 14:02:38;;;;;;;;;;;26.10;29.90;;;;;;4995488;28;19926;-58
2023/12/16 14:05:05;;;;;;;;;;;26.10;29.90;;;;;;4978256;28;20033;-58
2023/12/16 14:07:32;;;;;;;;;;;26.10;29.90;;;;;;4995227;28;20375;-59
2023/12/16 14:10:01;;;;;;;;;;;26.10;29.90;;;;;;4995329;28;19930;-58
2023/12/16 14:12:28;;;;;;;;;;;26.10;29.90;;;;;;4995481;28;20297;-59
2023/12/16 14:14:55;;;;;;;;;;;26.10;29.90;;;;;;4995219;28;19932;-58
2023/12/16 14:17:22;;;;;;;;;;;26.00;29.90;;;;;;4995216;28;19926;-58
2023/12/16 14:19:49;;;;;;;;;;;26.00;29.90;;;;;;4995010;28;19926;-58